メインページ
METAR-TAF:

METAR-TAF

空港 :

アルハンゲリスク, ロシア

緯度: 64-30N, 経度: 040-44E, 海抜: 13m

現時点の気象観測

当レポートは36分前の04:30(UTC)に作成
北西の風 4kt
気温 1°C
湿度 93%
気圧 1012 hPa
視程10km以上
高度1000ftの千切れ雲あり, 積乱雲.

METAR: ULAA 210430Z 32002MPS 9999 BKN010CB 01/M00 Q1012 R26/510155 TEMPO 1000 SHSNRA BKN003CB RMK QFE758/1010

時間: 08:06 (05:06 UTC)

予報

当レポートは3時間9分前の01:57(UTC)に作成
予報は21日の 03時(UTC)から 22日の 03時(UTC)まで有効
北西の風 6kt
視程10km以上
高度700ftの雲は散在している
高度1200ftの千切れ雲あり, 積乱雲.
21日の 03時(UTC)から 21日の 07時(UTC)まで一時的に
西の風 6kt、最大19ktの突風を伴う
視程: 1000m
高度300ftの千切れ雲あり
高度1100ftの千切れ雲あり, 積乱雲.
にわか雪, 雨
21日の 07時(UTC)から 22日の 03時(UTC)まで一時的に
の風 12kt
視程: 3100m
高度500ftの雲は散在している
高度1100ftの千切れ雲あり, 積乱雲.
弱いにわか雪, 雨

TAF: ULAA 210157Z 2103/2203 32003MPS 9999 SCT007 BKN012CB TEMPO 2103/2107 28003G10MPS 1000 SHSNRA BKN003 BKN011CB TEMPO 2107/2203 36006MPS 3100 -SHSNRA SCT005 BKN011CB

4,000以上の空港の気象観測と天気予報(METAR報とTAF報)

利用可能な観測所は地図上に黄色い丸と赤い丸で示す。

丸の上にカーソルを重ねると観測所名を参照できる。

次にクリックすると気象観測と天気予報を参照できる。

マップの切り替え:黒色「×」印の緑ボタンをクリックして拡大、「-」印の緑ボタンをクリックして縮小、緑色の三角印をクリックして隣りの地図に切り替え


METAR-TAF: